sensor_id;sensor_type;location;lat;lon;timestamp;pressure;altitude;pressure_sealevel;temperature;humidity
68994;BME280;56054;50.968;5.816;2022-09-13T00:01:20;100283.41;;;18.91;71.44
68994;BME280;56054;50.968;5.816;2022-09-13T00:04:32;100283.34;;;18.88;71.47
68994;BME280;56054;50.968;5.816;2022-09-13T00:07:39;100287.78;;;18.90;71.91
68994;BME280;56054;50.968;5.816;2022-09-13T00:10:47;100291.16;;;18.85;71.00
68994;BME280;56054;50.968;5.816;2022-09-13T00:13:57;100285.88;;;18.85;70.85
68994;BME280;56054;50.968;5.816;2022-09-13T00:17:04;100283.34;;;18.88;70.59
68994;BME280;56054;50.968;5.816;2022-09-13T00:20:16;100283.25;;;18.83;70.69
68994;BME280;56054;50.968;5.816;2022-09-13T00:23:24;100271.84;;;18.83;70.26
68994;BME280;56054;50.968;5.816;2022-09-13T00:26:31;100265.75;;;18.85;70.11
68994;BME280;56054;50.968;5.816;2022-09-13T00:29:38;100265.75;;;18.87;70.41
68994;BME280;56054;50.968;5.816;2022-09-13T00:32:45;100266.72;;;18.90;70.13
68994;BME280;56054;50.968;5.816;2022-09-13T00:35:52;100263.19;;;18.90;70.17
68994;BME280;56054;50.968;5.816;2022-09-13T00:39:01;100261.47;;;18.92;69.95
68994;BME280;56054;50.968;5.816;2022-09-13T00:42:13;100261.53;;;18.93;70.00
68994;BME280;56054;50.968;5.816;2022-09-13T00:45:20;100264.81;;;18.85;70.00
68994;BME280;56054;50.968;5.816;2022-09-13T00:49:20;100258.78;;;18.89;69.88
68994;BME280;56054;50.968;5.816;2022-09-13T00:52:33;100264.81;;;18.83;69.42
68994;BME280;56054;50.968;5.816;2022-09-13T00:55:46;100257.84;;;18.85;69.38
68994;BME280;56054;50.968;5.816;2022-09-13T00:59:06;100252.47;;;18.80;69.05
68994;BME280;56054;50.968;5.816;2022-09-13T01:02:17;100243.88;;;18.89;68.70
68994;BME280;56054;50.968;5.816;2022-09-13T01:05:40;100253.56;;;18.90;67.97
68994;BME280;56054;50.968;5.816;2022-09-13T01:08:55;100247.38;;;18.88;68.03
68994;BME280;56054;50.968;5.816;2022-09-13T01:15:53;100247.38;;;18.90;68.07
68994;BME280;56054;50.968;5.816;2022-09-13T01:19:00;100242.06;;;18.87;67.91
68994;BME280;56054;50.968;5.816;2022-09-13T01:39:13;100227.78;;;18.75;69.11
68994;BME280;56054;50.968;5.816;2022-09-13T01:45:52;100213.47;;;18.64;69.51
68994;BME280;56054;50.968;5.816;2022-09-13T01:52:31;100200.28;;;18.63;69.50
68994;BME280;56054;50.968;5.816;2022-09-13T01:59:42;100198.56;;;18.63;69.72
68994;BME280;56054;50.968;5.816;2022-09-13T02:03:13;100203.88;;;18.66;69.40
68994;BME280;56054;50.968;5.816;2022-09-13T02:06:37;100200.38;;;18.67;69.78
68994;BME280;56054;50.968;5.816;2022-09-13T02:10:08;100197.63;;;18.61;69.66
68994;BME280;56054;50.968;5.816;2022-09-13T02:13:26;100197.63;;;18.61;69.70
68994;BME280;56054;50.968;5.816;2022-09-13T02:16:49;100191.44;;;18.60;69.53
68994;BME280;56054;50.968;5.816;2022-09-13T02:20:35;100183.66;;;18.64;69.87
68994;BME280;56054;50.968;5.816;2022-09-13T02:24:17;100191.59;;;18.67;69.89
68994;BME280;56054;50.968;5.816;2022-09-13T02:27:27;100187.94;;;18.60;70.18
68994;BME280;56054;50.968;5.816;2022-09-13T02:31:08;100191.38;;;18.57;70.40
68994;BME280;56054;50.968;5.816;2022-09-13T02:34:30;100190.78;;;18.69;70.69
68994;BME280;56054;50.968;5.816;2022-09-13T02:37:42;100190.63;;;18.61;70.21
68994;BME280;56054;50.968;5.816;2022-09-13T02:44:45;100195.94;;;18.63;70.33
68994;BME280;56054;50.968;5.816;2022-09-13T02:48:46;100195.00;;;18.61;70.58
68994;BME280;56054;50.968;5.816;2022-09-13T02:51:51;100190.66;;;18.65;70.65
68994;BME280;56054;50.968;5.816;2022-09-13T02:59:21;100183.59;;;18.62;70.51
68994;BME280;56054;50.968;5.816;2022-09-13T03:02:42;100187.97;;;18.61;70.62
68994;BME280;56054;50.968;5.816;2022-09-13T03:05:57;100180.84;;;18.56;71.05
68994;BME280;56054;50.968;5.816;2022-09-13T03:09:05;100193.19;;;18.60;71.80
68994;BME280;56054;50.968;5.816;2022-09-13T03:13:04;100199.13;;;18.50;72.05
68994;BME280;56054;50.968;5.816;2022-09-13T03:16:40;100192.09;;;18.49;72.29
68994;BME280;56054;50.968;5.816;2022-09-13T03:23:34;100197.47;;;18.53;72.96
68994;BME280;56054;50.968;5.816;2022-09-13T03:30:16;100206.25;;;18.54;73.38
68994;BME280;56054;50.968;5.816;2022-09-13T03:46:45;100217.59;;;18.51;70.22
68994;BME280;56054;50.968;5.816;2022-09-13T03:49:54;100214.94;;;18.51;69.63
68994;BME280;56054;50.968;5.816;2022-09-13T03:53:20;100210.53;;;18.50;69.72
68994;BME280;56054;50.968;5.816;2022-09-13T03:56:32;100216.69;;;18.51;68.96
68994;BME280;56054;50.968;5.816;2022-09-13T03:59:45;100217.69;;;18.56;68.95
68994;BME280;56054;50.968;5.816;2022-09-13T04:02:53;100223.84;;;18.58;68.70
68994;BME280;56054;50.968;5.816;2022-09-13T04:06:01;100215.94;;;18.56;68.72
68994;BME280;56054;50.968;5.816;2022-09-13T04:09:13;100213.25;;;18.55;68.69
68994;BME280;56054;50.968;5.816;2022-09-13T04:12:20;100218.53;;;18.55;68.69
68994;BME280;56054;50.968;5.816;2022-09-13T04:15:52;100214.19;;;18.57;68.64
68994;BME280;56054;50.968;5.816;2022-09-13T04:19:00;100208.06;;;18.58;68.08
68994;BME280;56054;50.968;5.816;2022-09-13T04:22:32;100216.06;;;18.63;67.90
68994;BME280;56054;50.968;5.816;2022-09-13T04:25:39;100199.34;;;18.60;68.13
68994;BME280;56054;50.968;5.816;2022-09-13T04:28:46;100204.66;;;18.62;67.79
68994;BME280;56054;50.968;5.816;2022-09-13T04:31:58;100207.22;;;18.59;68.03
68994;BME280;56054;50.968;5.816;2022-09-13T04:35:05;100204.59;;;18.59;68.07
68994;BME280;56054;50.968;5.816;2022-09-13T04:38:13;100203.78;;;18.61;67.89
68994;BME280;56054;50.968;5.816;2022-09-13T04:41:20;100198.56;;;18.63;67.98
68994;BME280;56054;50.968;5.816;2022-09-13T04:44:39;100213.53;;;18.67;67.62
68994;BME280;56054;50.968;5.816;2022-09-13T04:47:51;100214.41;;;18.68;67.52
68994;BME280;56054;50.968;5.816;2022-09-13T04:51:13;100206.56;;;18.69;67.74
68994;BME280;56054;50.968;5.816;2022-09-13T04:54:27;100213.53;;;18.67;67.51
68994;BME280;56054;50.968;5.816;2022-09-13T04:57:34;100210.13;;;18.71;66.95
68994;BME280;56054;50.968;5.816;2022-09-13T05:00:41;100210.06;;;18.68;67.05
68994;BME280;56054;50.968;5.816;2022-09-13T05:03:50;100204.84;;;18.71;66.94
68994;BME280;56054;50.968;5.816;2022-09-13T05:06:57;100200.53;;;18.73;67.03
68994;BME280;56054;50.968;5.816;2022-09-13T05:10:04;100202.28;;;18.73;67.14
68994;BME280;56054;50.968;5.816;2022-09-13T05:13:12;100204.91;;;18.73;66.56
68994;BME280;56054;50.968;5.816;2022-09-13T05:16:26;100198.91;;;18.80;66.71
68994;BME280;56054;50.968;5.816;2022-09-13T05:19:42;100204.91;;;18.74;67.20
68994;BME280;56054;50.968;5.816;2022-09-13T05:22:49;100212.91;;;18.77;67.15
68994;BME280;56054;50.968;5.816;2022-09-13T05:26:04;100210.25;;;18.76;67.61
68994;BME280;56054;50.968;5.816;2022-09-13T05:29:12;100218.16;;;18.76;67.32
68994;BME280;56054;50.968;5.816;2022-09-13T05:32:20;100222.47;;;18.74;67.79
68994;BME280;56054;50.968;5.816;2022-09-13T05:35:27;100214.53;;;18.72;67.86
68994;BME280;56054;50.968;5.816;2022-09-13T05:38:34;100217.16;;;18.72;68.13
68994;BME280;56054;50.968;5.816;2022-09-13T05:41:44;100222.34;;;18.69;67.87
68994;BME280;56054;50.968;5.816;2022-09-13T05:45:03;100219.88;;;18.75;67.95
68994;BME280;56054;50.968;5.816;2022-09-13T05:48:12;100227.69;;;18.72;67.42
68994;BME280;56054;50.968;5.816;2022-09-13T05:51:20;100231.25;;;18.74;67.79
68994;BME280;56054;50.968;5.816;2022-09-13T05:54:54;100227.66;;;18.71;67.99
68994;BME280;56054;50.968;5.816;2022-09-13T05:58:02;100227.72;;;18.74;67.97
68994;BME280;56054;50.968;5.816;2022-09-13T06:01:11;100223.41;;;18.76;68.36
68994;BME280;56054;50.968;5.816;2022-09-13T06:04:19;100226.84;;;18.75;68.26
68994;BME280;56054;50.968;5.816;2022-09-13T06:07:27;100230.44;;;18.77;68.01
68994;BME280;56054;50.968;5.816;2022-09-13T06:10:34;100226.09;;;18.79;68.18
68994;BME280;56054;50.968;5.816;2022-09-13T06:13:42;100224.44;;;18.83;67.97
68994;BME280;56054;50.968;5.816;2022-09-13T06:16:50;100234.97;;;18.83;68.40
68994;BME280;56054;50.968;5.816;2022-09-13T06:19:57;100232.41;;;18.87;67.21
68994;BME280;56054;50.968;5.816;2022-09-13T06:23:04;100221.16;;;18.93;67.84
68994;BME280;56054;50.968;5.816;2022-09-13T06:26:13;100226.31;;;18.90;68.24
68994;BME280;56054;50.968;5.816;2022-09-13T06:29:32;100226.44;;;18.94;68.66
68994;BME280;56054;50.968;5.816;2022-09-13T06:32:42;100229.25;;;19.02;67.96
68994;BME280;56054;50.968;5.816;2022-09-13T06:36:00;100228.31;;;19.00;68.25
68994;BME280;56054;50.968;5.816;2022-09-13T06:39:07;100223.13;;;19.03;67.84
68994;BME280;56054;50.968;5.816;2022-09-13T06:42:14;100220.53;;;19.05;68.59
68994;BME280;56054;50.968;5.816;2022-09-13T06:45:21;100232.03;;;19.11;68.75
68994;BME280;56054;50.968;5.816;2022-09-13T06:48:33;100233.03;;;19.16;68.66
68994;BME280;56054;50.968;5.816;2022-09-13T06:52:11;100230.50;;;19.21;68.69
68994;BME280;56054;50.968;5.816;2022-09-13T06:55:19;100236.72;;;19.24;68.41
68994;BME280;56054;50.968;5.816;2022-09-13T06:58:28;100234.13;;;19.28;68.15
68994;BME280;56054;50.968;5.816;2022-09-13T07:01:48;100233.34;;;19.32;67.81
68994;BME280;56054;50.968;5.816;2022-09-13T07:04:55;100227.25;;;19.36;67.59
68994;BME280;56054;50.968;5.816;2022-09-13T07:08:32;100230.81;;;19.38;67.77
68994;BME280;56054;50.968;5.816;2022-09-13T07:11:40;100231.78;;;19.43;67.75
68994;BME280;56054;50.968;5.816;2022-09-13T07:14:48;100232.66;;;19.42;67.99
68994;BME280;56054;50.968;5.816;2022-09-13T07:18:04;100233.59;;;19.45;68.04
68994;BME280;56054;50.968;5.816;2022-09-13T07:24:56;100238.22;;;19.57;67.77
68994;BME280;56054;50.968;5.816;2022-09-13T07:28:03;100225.97;;;19.59;68.69
68994;BME280;56054;50.968;5.816;2022-09-13T07:31:29;100225.91;;;19.56;67.55
68994;BME280;56054;50.968;5.816;2022-09-13T07:35:03;100226.06;;;19.64;68.01
68994;BME280;56054;50.968;5.816;2022-09-13T07:38:10;100221.75;;;19.67;67.89
68994;BME280;56054;50.968;5.816;2022-09-13T07:41:24;100214.00;;;19.75;66.94
68994;BME280;56054;50.968;5.816;2022-09-13T07:44:32;100221.16;;;19.84;67.58
68994;BME280;56054;50.968;5.816;2022-09-13T07:47:39;100226.63;;;19.96;67.72
68994;BME280;56054;50.968;5.816;2022-09-13T07:54:18;100230.41;;;20.10;67.70
68994;BME280;56054;50.968;5.816;2022-09-13T07:57:26;100229.81;;;20.30;67.17
68994;BME280;56054;50.968;5.816;2022-09-13T08:00:38;100230.09;;;20.47;67.10
68994;BME280;56054;50.968;5.816;2022-09-13T08:04:08;100221.25;;;20.45;66.89
68994;BME280;56054;50.968;5.816;2022-09-13T08:07:29;100223.22;;;20.57;65.94
68994;BME280;56054;50.968;5.816;2022-09-13T08:10:37;100232.25;;;20.74;65.62
68994;BME280;56054;50.968;5.816;2022-09-13T08:14:14;100240.38;;;20.89;65.44
68994;BME280;56054;50.968;5.816;2022-09-13T08:17:28;100236.94;;;20.97;64.98
68994;BME280;56054;50.968;5.816;2022-09-13T08:20:43;100237.09;;;21.09;65.00
68994;BME280;56054;50.968;5.816;2022-09-13T08:23:54;100237.34;;;21.27;65.76
68994;BME280;56054;50.968;5.816;2022-09-13T08:27:01;100254.22;;;21.38;64.60
68994;BME280;56054;50.968;5.816;2022-09-13T08:30:13;100261.41;;;21.49;65.08
68994;BME280;56054;50.968;5.816;2022-09-13T08:33:21;100258.00;;;21.59;65.75
68994;BME280;56054;50.968;5.816;2022-09-13T08:36:28;100257.34;;;21.83;64.77
68994;BME280;56054;50.968;5.816;2022-09-13T08:39:36;100258.25;;;21.85;64.71
68994;BME280;56054;50.968;5.816;2022-09-13T08:43:08;100252.25;;;22.03;63.32
68994;BME280;56054;50.968;5.816;2022-09-13T08:46:30;100244.97;;;21.79;62.78
68994;BME280;56054;50.968;5.816;2022-09-13T08:49:42;100253.78;;;21.79;63.23
68994;BME280;56054;50.968;5.816;2022-09-13T08:56:12;100248.78;;;22.10;63.87
68994;BME280;56054;50.968;5.816;2022-09-13T09:03:45;100268.44;;;22.40;63.57
68994;BME280;56054;50.968;5.816;2022-09-13T09:10:26;100261.44;;;22.43;62.98
68994;BME280;56054;50.968;5.816;2022-09-13T09:13:43;100256.22;;;22.57;62.90
68994;BME280;56054;50.968;5.816;2022-09-13T09:17:13;100257.22;;;22.73;61.95
68994;BME280;56054;50.968;5.816;2022-09-13T09:20:48;100253.69;;;22.76;60.06
68994;BME280;56054;50.968;5.816;2022-09-13T09:24:20;100258.31;;;23.11;62.11
68994;BME280;56054;50.968;5.816;2022-09-13T09:27:30;100256.50;;;23.06;61.06
68994;BME280;56054;50.968;5.816;2022-09-13T09:38:38;100274.19;;;23.04;60.46
68994;BME280;56054;50.968;5.816;2022-09-13T09:41:46;100261.00;;;23.20;61.92
68994;BME280;56054;50.968;5.816;2022-09-13T09:45:34;100253.06;;;23.20;60.36
68994;BME280;56054;50.968;5.816;2022-09-13T09:49:17;100257.44;;;23.15;59.87
68994;BME280;56054;50.968;5.816;2022-09-13T09:52:35;100259.28;;;23.34;59.91
68994;BME280;56054;50.968;5.816;2022-09-13T09:56:26;100238.97;;;23.45;59.36
68994;BME280;56054;50.968;5.816;2022-09-13T09:59:43;100251.34;;;23.40;58.71
68994;BME280;56054;50.968;5.816;2022-09-13T10:02:56;100245.22;;;23.58;58.71
68994;BME280;56054;50.968;5.816;2022-09-13T10:06:20;100240.78;;;23.62;59.87
68994;BME280;56054;50.968;5.816;2022-09-13T10:12:55;100224.00;;;23.66;60.37
68994;BME280;56054;50.968;5.816;2022-09-13T10:16:24;100223.09;;;23.53;60.42
68994;BME280;56054;50.968;5.816;2022-09-13T10:19:32;100228.41;;;23.58;60.39
68994;BME280;56054;50.968;5.816;2022-09-13T10:23:18;100216.91;;;23.49;59.48
68994;BME280;56054;50.968;5.816;2022-09-13T10:26:25;100215.22;;;23.79;59.97
68994;BME280;56054;50.968;5.816;2022-09-13T10:29:32;100211.63;;;23.72;59.60
68994;BME280;56054;50.968;5.816;2022-09-13T10:33:02;100217.88;;;23.91;60.54
68994;BME280;56054;50.968;5.816;2022-09-13T10:36:17;100212.56;;;24.14;61.19
68994;BME280;56054;50.968;5.816;2022-09-13T10:39:27;100206.34;;;24.14;60.54
68994;BME280;56054;50.968;5.816;2022-09-13T10:42:35;100202.81;;;24.13;60.42
68994;BME280;56054;50.968;5.816;2022-09-13T10:46:14;100200.19;;;24.06;60.74
68994;BME280;56054;50.968;5.816;2022-09-13T10:49:46;100185.16;;;24.08;60.03
68994;BME280;56054;50.968;5.816;2022-09-13T10:53:03;100184.28;;;24.03;59.48
68994;BME280;56054;50.968;5.816;2022-09-13T10:56:25;100187.81;;;24.05;60.40
68994;BME280;56054;50.968;5.816;2022-09-13T10:59:32;100185.16;;;24.03;60.28
68994;BME280;56054;50.968;5.816;2022-09-13T11:06:49;100182.47;;;24.14;59.48
68994;BME280;56054;50.968;5.816;2022-09-13T11:10:13;100186.03;;;24.01;60.31
68994;BME280;56054;50.968;5.816;2022-09-13T11:17:02;100174.56;;;23.92;59.79
68994;BME280;56054;50.968;5.816;2022-09-13T11:24:05;100166.56;;;24.11;59.06
68994;BME280;56054;50.968;5.816;2022-09-13T11:51:55;100180.59;;;24.74;57.53
68994;BME280;56054;50.968;5.816;2022-09-13T11:55:24;100188.59;;;24.77;57.78
68994;BME280;56054;50.968;5.816;2022-09-13T11:58:57;100178.88;;;24.61;57.96
68994;BME280;56054;50.968;5.816;2022-09-13T12:02:23;100177.84;;;24.94;57.19
68994;BME280;56054;50.968;5.816;2022-09-13T12:05:57;100184.00;;;25.04;56.02
68994;BME280;56054;50.968;5.816;2022-09-13T12:09:15;100180.63;;;24.71;56.67
68994;BME280;56054;50.968;5.816;2022-09-13T12:12:30;100178.81;;;24.83;55.74
68994;BME280;56054;50.968;5.816;2022-09-13T12:15:41;100171.75;;;24.75;56.24
68994;BME280;56054;50.968;5.816;2022-09-13T12:18:54;100168.25;;;24.70;55.74
68994;BME280;56054;50.968;5.816;2022-09-13T12:22:14;100166.38;;;24.91;55.67
68994;BME280;56054;50.968;5.816;2022-09-13T12:25:35;100165.47;;;24.99;55.68
68994;BME280;56054;50.968;5.816;2022-09-13T12:32:37;100150.41;;;24.91;55.80
68994;BME280;56054;50.968;5.816;2022-09-13T12:43:48;100145.75;;;25.39;53.57
68994;BME280;56054;50.968;5.816;2022-09-13T12:55:37;100149.31;;;25.35;54.71
68994;BME280;56054;50.968;5.816;2022-09-13T12:59:26;100150.34;;;25.09;55.40
68994;BME280;56054;50.968;5.816;2022-09-13T13:06:36;100143.28;;;25.02;55.86
68994;BME280;56054;50.968;5.816;2022-09-13T13:09:49;100132.66;;;24.99;56.31
68994;BME280;56054;50.968;5.816;2022-09-13T13:13:30;100135.31;;;24.94;56.25
68994;BME280;56054;50.968;5.816;2022-09-13T13:16:39;100134.44;;;25.00;56.83
68994;BME280;56054;50.968;5.816;2022-09-13T13:19:46;100142.47;;;24.82;56.90
68994;BME280;56054;50.968;5.816;2022-09-13T13:40:31;100130.00;;;25.02;55.94
68994;BME280;56054;50.968;5.816;2022-09-13T13:50:28;100135.09;;;25.44;55.33
68994;BME280;56054;50.968;5.816;2022-09-13T13:53:35;100127.22;;;25.25;55.15
68994;BME280;56054;50.968;5.816;2022-09-13T13:56:48;100126.25;;;25.37;55.25
68994;BME280;56054;50.968;5.816;2022-09-13T13:59:56;100126.28;;;25.31;54.84
68994;BME280;56054;50.968;5.816;2022-09-13T14:22:28;100109.59;;;25.07;55.86
68994;BME280;56054;50.968;5.816;2022-09-13T14:25:36;100108.75;;;24.96;56.22
68994;BME280;56054;50.968;5.816;2022-09-13T14:29:11;100114.97;;;24.92;55.23
68994;BME280;56054;50.968;5.816;2022-09-13T14:32:52;100121.22;;;24.86;55.95
68994;BME280;56054;50.968;5.816;2022-09-13T14:36:37;100122.16;;;24.74;57.36
68994;BME280;56054;50.968;5.816;2022-09-13T14:43:25;100120.38;;;24.75;58.65
68994;BME280;56054;50.968;5.816;2022-09-13T14:51:23;100124.88;;;24.58;59.48
68994;BME280;56054;50.968;5.816;2022-09-13T14:55:13;100116.06;;;24.51;63.06
68994;BME280;56054;50.968;5.816;2022-09-13T14:58:47;100117.84;;;24.37;63.13
68994;BME280;56054;50.968;5.816;2022-09-13T15:01:54;100123.19;;;24.29;64.65
68994;BME280;56054;50.968;5.816;2022-09-13T15:05:04;100126.75;;;24.17;65.27
68994;BME280;56054;50.968;5.816;2022-09-13T15:12:03;100118.81;;;24.05;67.57
68994;BME280;56054;50.968;5.816;2022-09-13T15:18:29;100125.88;;;24.17;66.88
68994;BME280;56054;50.968;5.816;2022-09-13T15:21:37;100126.75;;;24.02;70.03
68994;BME280;56054;50.968;5.816;2022-09-13T15:24:47;100118.81;;;24.05;69.65
68994;BME280;56054;50.968;5.816;2022-09-13T15:27:56;100119.72;;;23.90;68.64
68994;BME280;56054;50.968;5.816;2022-09-13T15:31:09;100128.53;;;23.84;71.39
68994;BME280;56054;50.968;5.816;2022-09-13T15:38:12;100125.88;;;23.69;69.38
68994;BME280;56054;50.968;5.816;2022-09-13T15:41:20;100136.47;;;23.41;65.65
68994;BME280;56054;50.968;5.816;2022-09-13T15:44:28;100130.25;;;23.28;66.52
68994;BME280;56054;50.968;5.816;2022-09-13T15:47:36;100134.63;;;23.06;67.11
68994;BME280;56054;50.968;5.816;2022-09-13T15:54:20;100136.31;;;22.88;68.43
68994;BME280;56054;50.968;5.816;2022-09-13T15:57:33;100141.56;;;22.77;69.63
68994;BME280;56054;50.968;5.816;2022-09-13T16:00:43;100139.75;;;22.63;72.05
68994;BME280;56054;50.968;5.816;2022-09-13T16:03:53;100144.97;;;22.53;74.10
68994;BME280;56054;50.968;5.816;2022-09-13T16:07:03;100144.88;;;22.30;75.24
68994;BME280;56054;50.968;5.816;2022-09-13T16:10:22;100129.91;;;22.38;75.92
68994;BME280;56054;50.968;5.816;2022-09-13T16:13:29;100128.94;;;22.20;77.14
68994;BME280;56054;50.968;5.816;2022-09-13T16:16:42;100131.53;;;22.17;76.95
68994;BME280;56054;50.968;5.816;2022-09-13T16:19:58;100133.22;;;22.09;76.95
68994;BME280;56054;50.968;5.816;2022-09-13T16:23:08;100136.81;;;22.16;77.13
68994;BME280;56054;50.968;5.816;2022-09-13T16:26:27;100134.97;;;22.06;77.83
68994;BME280;56054;50.968;5.816;2022-09-13T16:29:36;100134.91;;;21.96;79.08
68994;BME280;56054;50.968;5.816;2022-09-13T16:32:43;100140.31;;;22.10;78.78
68994;BME280;56054;50.968;5.816;2022-09-13T16:35:50;100144.66;;;22.04;79.64
68994;BME280;56054;50.968;5.816;2022-09-13T16:38:57;100146.53;;;22.18;78.87
68994;BME280;56054;50.968;5.816;2022-09-13T16:42:07;100127.09;;;22.16;78.92
68994;BME280;56054;50.968;5.816;2022-09-13T16:45:17;100118.22;;;22.08;79.96
68994;BME280;56054;50.968;5.816;2022-09-13T16:48:27;100112.97;;;22.11;80.42
68994;BME280;56054;50.968;5.816;2022-09-13T16:51:43;100118.28;;;22.19;80.86
68994;BME280;56054;50.968;5.816;2022-09-13T16:54:52;100123.50;;;22.05;80.33
68994;BME280;56054;50.968;5.816;2022-09-13T16:58:14;100134.88;;;21.92;80.23
68994;BME280;56054;50.968;5.816;2022-09-13T17:01:24;100134.00;;;21.93;79.57
68994;BME280;56054;50.968;5.816;2022-09-13T17:04:31;100131.06;;;21.57;81.04
68994;BME280;56054;50.968;5.816;2022-09-13T17:07:43;100124.81;;;21.45;81.39
68994;BME280;56054;50.968;5.816;2022-09-13T17:10:50;100130.22;;;21.60;79.95
68994;BME280;56054;50.968;5.816;2022-09-13T17:13:59;100117.75;;;21.45;79.84
68994;BME280;56054;50.968;5.816;2022-09-13T17:17:08;100110.56;;;21.33;79.66
68994;BME280;56054;50.968;5.816;2022-09-13T17:20:18;100109.84;;;21.47;79.31
68994;BME280;56054;50.968;5.816;2022-09-13T17:23:25;100112.56;;;21.56;79.76
68994;BME280;56054;50.968;5.816;2022-09-13T17:26:32;100095.59;;;21.35;81.31
68994;BME280;56054;50.968;5.816;2022-09-13T17:29:39;100096.50;;;21.34;82.48
68994;BME280;56054;50.968;5.816;2022-09-13T17:32:46;100091.34;;;21.47;81.23
68994;BME280;56054;50.968;5.816;2022-09-13T17:36:05;100096.56;;;21.41;83.40
68994;BME280;56054;50.968;5.816;2022-09-13T17:39:12;100104.97;;;21.03;86.31
68994;BME280;56054;50.968;5.816;2022-09-13T17:42:34;100100.38;;;20.83;86.49
68994;BME280;56054;50.968;5.816;2022-09-13T17:45:41;100107.53;;;20.97;85.76
68994;BME280;56054;50.968;5.816;2022-09-13T17:48:54;100102.06;;;20.78;86.60
68994;BME280;56054;50.968;5.816;2022-09-13T17:52:32;100108.25;;;20.80;85.18
68994;BME280;56054;50.968;5.816;2022-09-13T17:55:47;100108.75;;;20.51;84.99
68994;BME280;56054;50.968;5.816;2022-09-13T17:59:05;100110.84;;;20.12;87.02
68994;BME280;56054;50.968;5.816;2022-09-13T18:02:38;100108.19;;;20.12;86.56
68994;BME280;56054;50.968;5.816;2022-09-13T18:05:45;100106.22;;;19.97;87.21
68994;BME280;56054;50.968;5.816;2022-09-13T18:08:57;100106.50;;;20.15;87.15
68994;BME280;56054;50.968;5.816;2022-09-13T18:12:07;100100.41;;;20.21;86.90
68994;BME280;56054;50.968;5.816;2022-09-13T18:15:14;100099.03;;;19.85;89.08
68994;BME280;56054;50.968;5.816;2022-09-13T18:18:21;100101.25;;;20.17;88.15
68994;BME280;56054;50.968;5.816;2022-09-13T18:21:47;100094.75;;;19.93;90.60
68994;BME280;56054;50.968;5.816;2022-09-13T18:24:54;100102.84;;;19.52;92.93
68994;BME280;56054;50.968;5.816;2022-09-13T18:28:01;100082.81;;;19.62;93.08
68994;BME280;56054;50.968;5.816;2022-09-13T18:31:12;100082.13;;;19.71;92.61
68994;BME280;56054;50.968;5.816;2022-09-13T18:34:22;100091.69;;;19.67;93.77
68994;BME280;56054;50.968;5.816;2022-09-13T18:37:30;100090.03;;;19.72;93.83
68994;BME280;56054;50.968;5.816;2022-09-13T18:41:09;100085.78;;;19.82;92.45
68994;BME280;56054;50.968;5.816;2022-09-13T18:44:47;100093.81;;;19.89;92.40
68994;BME280;56054;50.968;5.816;2022-09-13T18:47:58;100086.88;;;19.96;91.48
68994;BME280;56054;50.968;5.816;2022-09-13T18:51:09;100082.59;;;20.03;90.90
68994;BME280;56054;50.968;5.816;2022-09-13T18:54:18;100075.50;;;19.97;91.32
68994;BME280;56054;50.968;5.816;2022-09-13T18:57:27;100072.03;;;20.03;90.51
68994;BME280;56054;50.968;5.816;2022-09-13T19:00:35;100079.13;;;20.05;91.15
68994;BME280;56054;50.968;5.816;2022-09-13T19:07:00;100066.63;;;19.94;91.76
68994;BME280;56054;50.968;5.816;2022-09-13T19:10:13;100070.16;;;19.94;91.83
68994;BME280;56054;50.968;5.816;2022-09-13T19:13:23;100071.03;;;19.93;91.92
68994;BME280;56054;50.968;5.816;2022-09-13T19:16:31;100063.13;;;19.93;92.59
68994;BME280;56054;50.968;5.816;2022-09-13T19:19:39;100068.47;;;19.99;91.51
68994;BME280;56054;50.968;5.816;2022-09-13T19:22:45;100067.66;;;20.03;91.50
68994;BME280;56054;50.968;5.816;2022-09-13T19:26:19;100066.84;;;20.07;91.82
68994;BME280;56054;50.968;5.816;2022-09-13T19:29:39;100079.94;;;20.00;92.74
68994;BME280;56054;50.968;5.816;2022-09-13T19:32:47;100090.41;;;19.97;92.49
68994;BME280;56054;50.968;5.816;2022-09-13T19:35:54;100093.94;;;19.97;91.98
68994;BME280;56054;50.968;5.816;2022-09-13T19:39:03;100090.41;;;19.97;91.70
68994;BME280;56054;50.968;5.816;2022-09-13T19:42:19;100095.69;;;19.95;93.05
68994;BME280;56054;50.968;5.816;2022-09-13T19:45:27;100095.38;;;19.77;94.01
68994;BME280;56054;50.968;5.816;2022-09-13T19:48:44;100098.19;;;19.89;93.51
68994;BME280;56054;50.968;5.816;2022-09-13T19:51:51;100106.94;;;19.85;94.22
68994;BME280;56054;50.968;5.816;2022-09-13T19:55:05;100097.88;;;19.67;95.00
68994;BME280;56054;50.968;5.816;2022-09-13T19:58:32;100094.44;;;19.72;94.80
68994;BME280;56054;50.968;5.816;2022-09-13T20:01:43;100082.06;;;19.67;94.74
68994;BME280;56054;50.968;5.816;2022-09-13T20:04:50;100084.28;;;19.44;96.81
68994;BME280;56054;50.968;5.816;2022-09-13T20:07:57;100083.03;;;19.74;94.39
68994;BME280;56054;50.968;5.816;2022-09-13T20:11:07;100089.22;;;19.76;94.55
68994;BME280;56054;50.968;5.816;2022-09-13T20:14:24;100079.31;;;19.63;96.61
68994;BME280;56054;50.968;5.816;2022-09-13T20:17:31;100080.69;;;19.39;98.36
68994;BME280;56054;50.968;5.816;2022-09-13T20:20:44;100085.13;;;19.42;98.20
68994;BME280;56054;50.968;5.816;2022-09-13T20:24:00;100092.28;;;19.49;97.67
68994;BME280;56054;50.968;5.816;2022-09-13T20:27:38;100075.88;;;19.65;95.77
68994;BME280;56054;50.968;5.816;2022-09-13T20:30:53;100075.00;;;19.66;96.37
68994;BME280;56054;50.968;5.816;2022-09-13T20:34:02;100071.44;;;19.64;95.27
68994;BME280;56054;50.968;5.816;2022-09-13T20:37:09;100076.69;;;19.64;96.30
68994;BME280;56054;50.968;5.816;2022-09-13T20:40:17;100085.50;;;19.63;95.75